Time;durP1;ratioP1;P1;durP2;ratioP2;P2;SDS_P1;SDS_P2;PMS_P1;PMS_P2;Temp;Humidity;BMP_temperature;BMP_pressure;BME280_temperature;BME280_humidity;BME280_pressure;Samples;Min_cycle;Max_cycle;Signal;HPM_P1;HPM_P2
2023/10/20 00:00:53;;;;;;;0.30;0.30;;;7.50;99.90;;;;;;5071629;28;20275;-80
2023/10/20 00:03:18;;;;;;;0.20;0.20;;;7.60;99.90;;;;;;5072394;28;20189;-80
2023/10/20 00:05:44;;;;;;;0.20;0.20;;;7.50;99.90;;;;;;5071805;28;20213;-80
2023/10/20 00:08:09;;;;;;;0.30;0.30;;;7.50;99.90;;;;;;5053983;28;20185;-80
2023/10/20 00:10:35;;;;;;;0.30;0.30;;;7.50;99.90;;;;;;5071920;28;20260;-80
2023/10/20 00:13:01;;;;;;;0.30;0.30;;;7.50;99.90;;;;;;5066643;28;20299;-80
2023/10/20 00:15:28;;;;;;;0.30;0.30;;;7.50;99.90;;;;;;5057878;28;20291;-80
2023/10/20 00:17:54;;;;;;;0.20;0.20;;;7.50;99.90;;;;;;5071783;28;20892;-79
2023/10/20 00:20:19;;;;;;;0.30;0.30;;;7.50;99.90;;;;;;5063883;28;20472;-80
2023/10/20 00:22:45;;;;;;;0.30;0.30;;;7.50;99.90;;;;;;5072126;28;20433;-80
2023/10/20 00:25:13;;;;;;;0.30;0.30;;;7.50;99.90;;;;;;5071131;28;20267;-80
2023/10/20 00:27:41;;;;;;;0.30;0.30;;;7.50;99.90;;;;;;5071361;28;20202;-80
2023/10/20 00:30:10;;;;;;;0.30;0.30;;;7.50;99.90;;;;;;5067782;28;20447;-79
2023/10/20 00:32:41;;;;;;;0.30;0.30;;;7.50;99.90;;;;;;5066479;28;20467;-80
2023/10/20 00:35:09;;;;;;;0.30;0.30;;;7.50;99.90;;;;;;5071832;28;20490;-80
2023/10/20 00:37:35;;;;;;;0.30;0.30;;;7.50;99.90;;;;;;5071063;28;20439;-79
2023/10/20 00:40:01;;;;;;;0.30;0.30;;;7.50;99.90;;;;;;5053590;28;20974;-80
2023/10/20 00:42:26;;;;;;;0.30;0.30;;;7.50;99.90;;;;;;5071050;28;20413;-79
2023/10/20 00:44:53;;;;;;;0.30;0.30;;;7.50;99.90;;;;;;5071854;28;20428;-80
2023/10/20 00:47:20;;;;;;;0.20;0.20;;;7.50;99.90;;;;;;5050589;28;20185;-81
2023/10/20 00:49:45;;;;;;;0.30;0.30;;;7.60;99.90;;;;;;5056747;28;20453;-80
2023/10/20 00:52:14;;;;;;;0.30;0.30;;;7.60;99.90;;;;;;5063130;28;20486;-80
2023/10/20 00:54:44;;;;;;;0.30;0.30;;;7.60;99.90;;;;;;5070026;28;20305;-81
2023/10/20 00:57:11;;;;;;;0.20;0.20;;;7.60;99.90;;;;;;5055982;28;20456;-79
2023/10/20 00:59:37;;;;;;;0.30;0.30;;;7.60;99.90;;;;;;5070664;28;20436;-80
2023/10/20 01:02:03;;;;;;;0.30;0.30;;;7.60;99.90;;;;;;5069395;28;20468;-80
2023/10/20 01:04:28;;;;;;;0.30;0.30;;;7.60;99.90;;;;;;5070388;28;20177;-80
2023/10/20 01:06:54;;;;;;;0.20;0.20;;;7.60;99.90;;;;;;5070170;28;20935;-80
2023/10/20 01:09:24;;;;;;;0.20;0.20;;;7.50;99.90;;;;;;5069902;28;20268;-80
2023/10/20 01:11:50;;;;;;;0.30;0.30;;;7.50;99.90;;;;;;5067083;28;20189;-81
2023/10/20 01:14:16;;;;;;;0.30;0.30;;;7.50;99.90;;;;;;5070263;28;20483;-80
2023/10/20 01:16:42;;;;;;;0.30;0.30;;;7.50;99.90;;;;;;5070527;28;20812;-81
2023/10/20 01:19:07;;;;;;;0.30;0.30;;;7.50;99.90;;;;;;5061114;28;20211;-81
2023/10/20 01:21:33;;;;;;;0.30;0.30;;;7.50;99.90;;;;;;5056674;28;20529;-80
2023/10/20 01:24:01;;;;;;;0.30;0.30;;;7.50;99.90;;;;;;5070637;28;20189;-79
2023/10/20 01:26:29;;;;;;;0.30;0.30;;;7.50;99.90;;;;;;5069328;28;20390;-81
2023/10/20 01:28:55;;;;;;;0.20;0.20;;;7.50;99.90;;;;;;5069500;28;20916;-82
2023/10/20 01:31:20;;;;;;;0.20;0.20;;;7.50;99.90;;;;;;5081110;28;20480;-83
2023/10/20 01:33:46;;;;;;;0.20;0.20;;;7.50;99.90;;;;;;5077487;28;20512;-81
2023/10/20 01:36:11;;;;;;;0.30;0.30;;;7.50;99.90;;;;;;5057860;28;20205;-81
2023/10/20 01:38:37;;;;;;;0.30;0.30;;;7.50;99.90;;;;;;5064473;28;20186;-81
2023/10/20 01:41:02;;;;;;;0.30;0.30;;;7.50;99.90;;;;;;5070451;28;20912;-80
2023/10/20 01:43:28;;;;;;;0.30;0.30;;;7.50;99.90;;;;;;5070190;28;20178;-81
2023/10/20 01:45:54;;;;;;;0.20;0.20;;;7.50;99.90;;;;;;5070235;28;20182;-81
2023/10/20 01:48:20;;;;;;;0.30;0.30;;;7.50;99.90;;;;;;5049757;28;20482;-80
2023/10/20 01:50:45;;;;;;;0.30;0.30;;;7.40;99.90;;;;;;5069770;28;20460;-81
2023/10/20 01:53:11;;;;;;;0.30;0.30;;;7.40;99.90;;;;;;5068093;28;20218;-81
2023/10/20 01:55:39;;;;;;;0.30;0.30;;;7.40;99.90;;;;;;5059583;28;20178;-81
2023/10/20 01:58:05;;;;;;;0.30;0.30;;;7.40;99.90;;;;;;5069749;28;20464;-80
2023/10/20 02:00:31;;;;;;;0.30;0.30;;;7.40;99.90;;;;;;5068993;28;20476;-81
2023/10/20 02:02:56;;;;;;;0.30;0.30;;;7.40;99.90;;;;;;5069992;28;20192;-80
2023/10/20 02:05:22;;;;;;;0.30;0.30;;;7.40;99.90;;;;;;5070122;28;20427;-82
2023/10/20 02:07:48;;;;;;;0.30;0.30;;;7.30;99.90;;;;;;5069763;28;20181;-81
2023/10/20 02:10:15;;;;;;;0.20;0.20;;;7.30;99.90;;;;;;5067886;28;21119;-81
2023/10/20 02:12:41;;;;;;;0.27;0.27;;;7.30;99.90;;;;;;5069889;28;20542;-81
2023/10/20 02:15:07;;;;;;;0.30;0.30;;;7.30;99.90;;;;;;5056394;28;20438;-80
2023/10/20 02:17:35;;;;;;;0.30;0.30;;;7.30;99.90;;;;;;5068560;28;20436;-81
2023/10/20 02:20:00;;;;;;;0.30;0.30;;;7.30;99.90;;;;;;5055589;28;20582;-81
2023/10/20 02:22:26;;;;;;;0.20;0.20;;;7.30;99.90;;;;;;5049777;28;20508;-81
2023/10/20 02:24:52;;;;;;;0.30;0.30;;;7.30;99.90;;;;;;5061147;28;20200;-81
2023/10/20 02:27:18;;;;;;;0.30;0.30;;;7.30;99.90;;;;;;5053797;28;20186;-83
2023/10/20 02:29:44;;;;;;;0.30;0.30;;;7.30;99.90;;;;;;5067167;28;20467;-80
2023/10/20 02:32:11;;;;;;;0.30;0.30;;;7.30;99.90;;;;;;5069375;28;20223;-81
2023/10/20 02:34:37;;;;;;;0.30;0.30;;;7.30;99.90;;;;;;5069014;28;20216;-83
2023/10/20 02:37:03;;;;;;;0.30;0.30;;;7.30;99.90;;;;;;5069020;28;20455;-82
2023/10/20 02:39:28;;;;;;;0.30;0.30;;;7.30;99.90;;;;;;5069643;28;20189;-82
2023/10/20 02:41:54;;;;;;;0.30;0.30;;;7.30;99.90;;;;;;5063561;28;20257;-82
2023/10/20 02:44:21;;;;;;;0.30;0.30;;;7.30;99.90;;;;;;5061302;28;20236;-81
2023/10/20 02:46:46;;;;;;;0.30;0.30;;;7.40;99.90;;;;;;5068999;28;20257;-84
2023/10/20 02:49:12;;;;;;;0.30;0.30;;;7.40;99.90;;;;;;5063041;28;20531;-83
2023/10/20 02:51:37;;;;;;;0.30;0.30;;;7.40;99.90;;;;;;5044413;28;20467;-83
2023/10/20 02:54:03;;;;;;;0.30;0.30;;;7.30;99.90;;;;;;5068359;28;20585;-84
2023/10/20 02:56:29;;;;;;;0.30;0.30;;;7.30;99.90;;;;;;5067212;28;20188;-82
2023/10/20 02:58:55;;;;;;;0.30;0.30;;;7.30;99.90;;;;;;5069386;28;20950;-85
2023/10/20 03:01:21;;;;;;;0.30;0.30;;;7.30;99.90;;;;;;5068518;28;20731;-85
2023/10/20 03:03:47;;;;;;;0.20;0.20;;;7.30;99.90;;;;;;5069192;28;20947;-84
2023/10/20 03:06:12;;;;;;;0.30;0.30;;;7.30;99.90;;;;;;5069582;28;20462;-85
2023/10/20 03:08:39;;;;;;;0.30;0.30;;;7.30;99.90;;;;;;5050821;28;20186;-84
2023/10/20 03:11:06;;;;;;;0.30;0.30;;;7.30;99.90;;;;;;5069431;28;20182;-83
2023/10/20 03:13:32;;;;;;;0.30;0.30;;;7.30;99.90;;;;;;5062731;28;20477;-85
2023/10/20 03:15:57;;;;;;;0.30;0.30;;;7.20;99.90;;;;;;5068445;28;20443;-84
2023/10/20 03:18:23;;;;;;;0.30;0.30;;;7.20;99.90;;;;;;5065760;28;20190;-83
2023/10/20 03:20:50;;;;;;;0.20;0.20;;;7.20;99.90;;;;;;5069925;28;20262;-84
2023/10/20 03:23:16;;;;;;;0.30;0.30;;;7.20;99.90;;;;;;5068209;28;20344;-85
2023/10/20 03:25:42;;;;;;;0.20;0.20;;;7.20;99.90;;;;;;5068297;28;20535;-83
2023/10/20 03:28:08;;;;;;;0.30;0.30;;;7.20;99.90;;;;;;5068861;28;20435;-86
2023/10/20 03:30:38;;;;;;;0.30;0.30;;;7.20;99.90;;;;;;5050228;28;20832;-86
2023/10/20 03:33:15;;;;;;;0.30;0.30;;;7.20;99.90;;;;;;5073444;28;20209;-83
2023/10/20 03:35:41;;;;;;;0.30;0.30;;;7.20;99.90;;;;;;5054887;28;20774;-84
2023/10/20 03:38:09;;;;;;;0.30;0.30;;;7.20;99.90;;;;;;5073251;28;20428;-86
2023/10/20 03:40:40;;;;;;;0.30;0.30;;;7.20;99.90;;;;;;5073052;28;20194;-84
2023/10/20 03:43:08;;;;;;;0.30;0.30;;;7.20;99.90;;;;;;5054997;28;20440;-87
2023/10/20 03:46:13;;;;;;;0.30;0.30;;;7.20;99.90;;;;;;5069904;28;20537;-87
2023/10/20 03:48:29;;;;;;;0.30;0.30;;;7.20;99.90;;;;;;5056161;28;20446;-86
2023/10/20 03:50:55;;;;;;;0.30;0.30;;;7.20;99.90;;;;;;5073068;28;20424;-86
2023/10/20 03:53:22;;;;;;;0.30;0.30;;;7.20;99.90;;;;;;5069275;28;20228;-86
2023/10/20 03:56:01;;;;;;;0.20;0.20;;;7.20;99.90;;;;;;5072419;28;20460;-87
2023/10/20 03:58:30;;;;;;;0.30;0.30;;;7.20;99.90;;;;;;5072776;28;20523;-86
2023/10/20 04:01:02;;;;;;;0.30;0.30;;;7.20;99.90;;;;;;5066311;28;20468;-86
2023/10/20 04:03:32;;;;;;;0.30;0.30;;;7.20;99.90;;;;;;5065793;28;20447;-85
2023/10/20 04:05:58;;;;;;;0.30;0.30;;;7.20;99.90;;;;;;5073025;28;20432;-89
2023/10/20 04:08:24;;;;;;;0.30;0.30;;;7.20;99.90;;;;;;5043463;28;20524;-85
2023/10/20 04:10:59;;;;;;;0.30;0.30;;;7.20;99.90;;;;;;5068788;28;20429;-85
2023/10/20 04:13:25;;;;;;;0.30;0.30;;;7.20;99.90;;;;;;5071113;28;20804;-86
2023/10/20 04:15:54;;;;;;;0.30;0.30;;;7.20;99.90;;;;;;5070859;28;20440;-88
2023/10/20 04:18:20;;;;;;;0.27;0.27;;;7.20;99.90;;;;;;5069752;28;20192;-84
2023/10/20 04:20:48;;;;;;;0.20;0.20;;;7.20;99.90;;;;;;5072038;28;20435;-86
2023/10/20 04:23:17;;;;;;;0.30;0.30;;;7.30;99.90;;;;;;5072436;28;20525;-86
2023/10/20 04:25:52;;;;;;;0.20;0.20;;;7.30;99.90;;;;;;5060168;28;20428;-85
2023/10/20 04:28:20;;;;;;;0.30;0.30;;;7.30;99.90;;;;;;5068549;28;20443;-85
2023/10/20 04:47:40;;;;;;;0.30;0.30;;;7.20;99.90;;;;;;5071881;28;20427;-88
2023/10/20 04:56:09;;;;;;;0.30;0.30;;;7.20;99.90;;;;;;5016449;28;20461;-86
2023/10/20 04:58:14;;;;;;;0.30;0.30;;;7.20;99.90;;;;;;5072235;28;20432;-85
2023/10/20 05:00:41;;;;;;;0.30;0.30;;;7.20;99.90;;;;;;5070602;28;20630;-86
2023/10/20 05:03:30;;;;;;;0.30;0.30;;;7.20;99.90;;;;;;5051700;28;21069;-87
2023/10/20 05:06:05;;;;;;;0.27;0.27;;;7.20;99.90;;;;;;5071340;28;20433;-88
2023/10/20 05:08:31;;;;;;;0.30;0.30;;;7.20;99.90;;;;;;5068845;28;20436;-87
2023/10/20 05:10:57;;;;;;;0.30;0.30;;;7.20;99.90;;;;;;5051376;28;20974;-86
2023/10/20 05:13:22;;;;;;;0.30;0.30;;;7.20;99.90;;;;;;5071368;28;20209;-89
2023/10/20 05:15:48;;;;;;;0.20;0.20;;;7.20;99.90;;;;;;5070714;28;20436;-88
2023/10/20 05:18:14;;;;;;;0.30;0.30;;;7.20;99.90;;;;;;5070659;28;20178;-89
2023/10/20 05:20:41;;;;;;;0.30;0.30;;;7.20;99.90;;;;;;5052747;28;20182;-86
2023/10/20 05:23:07;;;;;;;0.30;0.30;;;7.20;99.90;;;;;;5052349;28;20853;-86
2023/10/20 05:25:33;;;;;;;0.30;0.30;;;7.20;99.90;;;;;;5060196;28;20442;-83
2023/10/20 05:28:02;;;;;;;0.20;0.20;;;7.20;99.90;;;;;;5062934;28;20460;-86
2023/10/20 05:30:27;;;;;;;0.30;0.30;;;7.10;99.90;;;;;;5051727;28;20175;-85
2023/10/20 05:32:53;;;;;;;0.30;0.30;;;7.20;99.90;;;;;;5070536;28;20803;-87
2023/10/20 05:35:19;;;;;;;0.30;0.30;;;7.10;99.90;;;;;;5069983;28;20188;-87
2023/10/20 05:37:44;;;;;;;0.30;0.30;;;7.10;99.90;;;;;;5070799;28;20209;-86
2023/10/20 05:40:13;;;;;;;0.27;0.27;;;7.20;99.90;;;;;;5049341;28;20217;-87
2023/10/20 05:42:38;;;;;;;0.20;0.20;;;7.20;99.90;;;;;;5055422;28;20181;-87
2023/10/20 05:45:17;;;;;;;0.20;0.20;;;7.20;99.90;;;;;;5076237;28;20484;-86
2023/10/20 05:47:42;;;;;;;0.20;0.20;;;7.10;99.90;;;;;;5069663;28;20201;-87
2023/10/20 05:50:09;;;;;;;0.30;0.30;;;7.10;99.90;;;;;;5071361;28;20491;-89
2023/10/20 05:52:35;;;;;;;0.30;0.30;;;7.20;99.90;;;;;;5071110;28;20196;-87
2023/10/20 05:55:03;;;;;;;0.30;0.30;;;7.10;99.90;;;;;;5069563;28;20451;-85
2023/10/20 05:57:29;;;;;;;0.30;0.30;;;7.10;99.90;;;;;;5050815;28;21002;-87
2023/10/20 05:59:54;;;;;;;0.30;0.30;;;7.10;99.90;;;;;;5051321;28;21303;-88
2023/10/20 06:02:20;;;;;;;0.30;0.30;;;7.10;99.90;;;;;;5067654;28;20480;-87
2023/10/20 06:04:46;;;;;;;0.30;0.30;;;7.10;99.90;;;;;;5056468;28;20194;-87
2023/10/20 06:07:11;;;;;;;0.30;0.30;;;7.10;99.90;;;;;;5063259;28;20595;-88
2023/10/20 06:09:37;;;;;;;0.30;0.30;;;7.10;99.90;;;;;;5052482;28;20242;-90
2023/10/20 06:12:05;;;;;;;0.30;0.30;;;7.10;99.90;;;;;;5072201;28;20207;-90
2023/10/20 06:14:31;;;;;;;0.30;0.30;;;7.10;99.90;;;;;;5073201;28;20205;-88
2023/10/20 06:16:56;;;;;;;0.30;0.30;;;7.10;99.90;;;;;;5071186;28;20478;-86
2023/10/20 06:19:22;;;;;;;0.30;0.30;;;7.10;99.90;;;;;;5057087;28;20223;-87
2023/10/20 06:21:48;;;;;;;0.30;0.30;;;7.10;99.90;;;;;;5067725;28;20202;-89
2023/10/20 06:24:14;;;;;;;0.30;0.30;;;7.10;99.90;;;;;;5067429;28;20560;-86
2023/10/20 06:26:39;;;;;;;0.30;0.30;;;7.10;99.90;;;;;;5068700;28;20570;-87
2023/10/20 06:29:26;;;;;;;0.30;0.30;;;7.10;99.90;;;;;;5065370;28;20186;-89
2023/10/20 06:34:41;;;;;;;0.30;0.30;;;7.10;99.90;;;;;;5063418;28;20487;-89
2023/10/20 06:37:08;;;;;;;0.30;0.30;;;7.10;99.90;;;;;;5069800;28;20428;-86
2023/10/20 06:39:35;;;;;;;0.30;0.30;;;7.10;99.90;;;;;;5059426;28;20453;-87
2023/10/20 06:42:02;;;;;;;0.30;0.30;;;7.10;99.90;;;;;;5059909;28;20433;-85
2023/10/20 06:44:28;;;;;;;0.30;0.30;;;7.20;99.90;;;;;;5064678;28;20440;-84
2023/10/20 06:46:56;;;;;;;0.30;0.30;;;7.20;99.90;;;;;;5067432;28;20462;-86
2023/10/20 06:49:21;;;;;;;0.30;0.30;;;7.20;99.90;;;;;;5054990;28;20475;-88
2023/10/20 06:51:47;;;;;;;0.27;0.27;;;7.20;99.90;;;;;;5057113;28;20424;-86
2023/10/20 06:54:13;;;;;;;0.30;0.30;;;7.20;99.90;;;;;;5053464;28;20348;-85
2023/10/20 06:56:39;;;;;;;0.30;0.30;;;7.20;99.90;;;;;;5033956;28;20793;-86
2023/10/20 06:59:04;;;;;;;0.30;0.30;;;7.20;99.90;;;;;;5033808;28;20190;-87
2023/10/20 07:01:32;;;;;;;0.30;0.30;;;7.30;99.90;;;;;;5057018;28;20279;-84
2023/10/20 07:03:58;;;;;;;0.23;0.23;;;7.30;99.90;;;;;;5063206;28;20540;-87
2023/10/20 07:06:23;;;;;;;0.30;0.30;;;7.30;99.90;;;;;;5038458;28;20436;-87
2023/10/20 07:08:50;;;;;;;0.30;0.30;;;7.30;99.90;;;;;;5059772;28;20254;-88
2023/10/20 07:11:16;;;;;;;0.30;0.30;;;7.30;99.90;;;;;;5051316;28;20174;-87
2023/10/20 07:13:44;;;;;;;0.30;0.30;;;7.40;99.90;;;;;;5081836;28;20497;-86
2023/10/20 07:16:11;;;;;;;0.23;0.23;;;7.40;99.90;;;;;;5076091;28;20431;-88
2023/10/20 07:18:38;;;;;;;0.20;0.20;;;7.40;99.90;;;;;;5070766;28;20452;-88
2023/10/20 07:21:03;;;;;;;0.30;0.30;;;7.40;99.90;;;;;;5073461;28;20420;-87
2023/10/20 07:23:29;;;;;;;0.30;0.30;;;7.40;99.90;;;;;;5072925;28;21618;-89
2023/10/20 07:25:54;;;;;;;0.20;0.20;;;7.40;99.90;;;;;;5053568;28;20231;-88
2023/10/20 07:28:21;;;;;;;0.30;0.30;;;7.40;99.90;;;;;;5071129;28;20186;-89
2023/10/20 07:30:47;;;;;;;0.30;0.30;;;7.50;99.90;;;;;;5073176;28;20200;-90
2023/10/20 07:33:12;;;;;;;0.30;0.30;;;7.50;99.90;;;;;;5075046;28;20472;-86
2023/10/20 07:35:38;;;;;;;0.30;0.30;;;7.50;99.90;;;;;;5070480;28;20206;-88
2023/10/20 07:38:04;;;;;;;0.30;0.30;;;7.50;99.90;;;;;;5071718;28;20268;-90
2023/10/20 07:40:34;;;;;;;0.30;0.30;;;7.50;99.90;;;;;;5073924;28;20432;-87
2023/10/20 07:43:06;;;;;;;0.30;0.30;;;7.40;99.90;;;;;;5072899;28;20182;-88
2023/10/20 07:45:41;;;;;;;0.30;0.30;;;7.40;99.90;;;;;;5062815;28;20473;-85
2023/10/20 07:48:07;;;;;;;0.30;0.30;;;7.40;99.90;;;;;;5072712;28;20416;-86
2023/10/20 07:50:32;;;;;;;0.20;0.20;;;7.50;99.90;;;;;;5072675;28;20465;-87
2023/10/20 07:52:58;;;;;;;0.30;0.30;;;7.50;99.90;;;;;;5072585;28;21009;-84
2023/10/20 07:55:23;;;;;;;0.20;0.20;;;7.50;99.90;;;;;;5065800;28;20190;-87
2023/10/20 07:57:48;;;;;;;0.30;0.30;;;7.50;99.90;;;;;;5072639;28;20178;-85
2023/10/20 08:00:14;;;;;;;0.30;0.30;;;7.50;99.90;;;;;;5072355;28;20189;-88
2023/10/20 08:02:41;;;;;;;0.30;0.30;;;7.50;99.90;;;;;;5072044;28;20765;-86
2023/10/20 08:05:08;;;;;;;0.20;0.20;;;7.50;99.90;;;;;;5073234;28;20207;-87
2023/10/20 08:07:33;;;;;;;0.27;0.27;;;7.50;99.90;;;;;;5088838;28;20424;-88
2023/10/20 08:09:59;;;;;;;0.20;0.20;;;7.50;99.90;;;;;;5060174;28;20444;-83
2023/10/20 08:12:25;;;;;;;0.30;0.30;;;7.50;99.90;;;;;;5071399;28;20186;-85
2023/10/20 08:14:50;;;;;;;0.30;0.30;;;7.50;99.90;;;;;;5071276;28;20363;-87
2023/10/20 08:17:16;;;;;;;0.30;0.30;;;7.50;99.90;;;;;;5069878;28;20178;-87
2023/10/20 08:19:45;;;;;;;0.20;0.20;;;7.60;99.90;;;;;;5069418;28;20274;-85
2023/10/20 08:22:10;;;;;;;0.23;0.23;;;7.60;99.90;;;;;;5051142;28;20182;-86
2023/10/20 08:24:36;;;;;;;0.30;0.30;;;7.60;99.90;;;;;;5065969;28;20452;-87
2023/10/20 08:27:02;;;;;;;0.30;0.30;;;7.70;99.90;;;;;;5071351;28;20269;-85
2023/10/20 08:29:28;;;;;;;0.30;0.30;;;7.70;99.90;;;;;;5071504;28;20765;-85
2023/10/20 08:31:54;;;;;;;0.30;0.30;;;7.80;99.90;;;;;;5069751;28;20179;-85
2023/10/20 08:34:20;;;;;;;0.30;0.30;;;7.80;99.90;;;;;;5062107;28;20477;-85
2023/10/20 08:36:46;;;;;;;0.20;0.20;;;7.80;99.90;;;;;;5066582;28;20947;-87
2023/10/20 08:39:19;;;;;;;0.27;0.27;;;7.80;99.90;;;;;;5060919;28;20443;-86
2023/10/20 08:41:45;;;;;;;0.30;0.30;;;7.70;99.90;;;;;;5067557;28;20162;-90
2023/10/20 08:44:14;;;;;;;0.20;0.20;;;7.60;99.90;;;;;;5060573;28;20600;-92
2023/10/20 08:46:41;;;;;;;0.30;0.30;;;7.60;99.90;;;;;;5063168;28;20422;-87
2023/10/20 08:49:08;;;;;;;0.30;0.30;;;7.50;99.90;;;;;;5066195;28;20451;-86
2023/10/20 08:51:37;;;;;;;0.30;0.30;;;7.50;99.90;;;;;;5071140;28;20424;-87
2023/10/20 08:54:06;;;;;;;0.30;0.30;;;7.50;99.90;;;;;;5059604;28;20476;-86
2023/10/20 08:56:32;;;;;;;0.30;0.30;;;7.50;99.90;;;;;;5056211;28;20441;-86
2023/10/20 08:58:58;;;;;;;0.30;0.30;;;7.40;99.90;;;;;;5062338;28;20440;-87
2023/10/20 09:01:23;;;;;;;0.30;0.30;;;7.40;99.90;;;;;;5065188;28;20477;-85
2023/10/20 09:03:49;;;;;;;0.30;0.30;;;7.40;99.90;;;;;;5060992;28;20659;-87
2023/10/20 09:06:15;;;;;;;0.30;0.30;;;7.40;99.90;;;;;;5049227;28;20551;-86
2023/10/20 09:08:49;;;;;;;0.30;0.30;;;7.40;99.90;;;;;;5065472;28;20651;-90
2023/10/20 09:11:15;;;;;;;0.30;0.30;;;7.40;99.90;;;;;;5071213;28;20181;-87
2023/10/20 09:13:43;;;;;;;0.30;0.30;;;7.40;99.90;;;;;;5049975;28;20611;-88
2023/10/20 09:16:11;;;;;;;0.30;0.30;;;7.40;99.90;;;;;;5064324;28;20179;-88
2023/10/20 09:18:46;;;;;;;0.30;0.30;;;7.40;99.90;;;;;;5070691;28;20440;-85
2023/10/20 09:21:18;;;;;;;0.30;0.30;;;7.40;99.90;;;;;;5049996;28;20985;-90
2023/10/20 09:24:05;;;;;;;0.30;0.30;;;7.40;99.90;;;;;;5059612;28;20503;-88
2023/10/20 09:26:36;;;;;;;0.20;0.20;;;7.40;99.90;;;;;;5056538;28;20423;-88
2023/10/20 09:29:05;;;;;;;0.30;0.30;;;7.40;99.90;;;;;;5061249;28;20433;-87
2023/10/20 09:31:31;;;;;;;0.30;0.30;;;7.40;99.90;;;;;;5070389;28;20489;-88
2023/10/20 09:33:57;;;;;;;0.30;0.30;;;7.50;99.90;;;;;;5069503;28;20472;-86
2023/10/20 09:36:23;;;;;;;0.20;0.20;;;7.50;99.90;;;;;;5070116;28;20488;-87
2023/10/20 09:38:56;;;;;;;0.20;0.20;;;7.50;99.90;;;;;;5059953;28;20419;-87
2023/10/20 09:41:30;;;;;;;0.30;0.30;;;7.50;99.90;;;;;;5058789;28;20198;-86
2023/10/20 09:44:02;;;;;;;0.20;0.20;;;7.50;99.90;;;;;;5068494;28;20387;-87
2023/10/20 09:46:47;;;;;;;0.20;0.20;;;7.60;99.90;;;;;;5041807;28;21098;-86
2023/10/20 09:49:25;;;;;;;0.30;0.30;;;7.60;99.90;;;;;;5065416;28;20507;-84
2023/10/20 09:51:51;;;;;;;0.30;0.30;;;7.60;99.90;;;;;;5045440;28;21051;-87
2023/10/20 09:54:26;;;;;;;0.30;0.30;;;7.60;99.90;;;;;;5046417;28;20502;-86
2023/10/20 09:56:53;;;;;;;0.30;0.30;;;7.70;99.90;;;;;;5070996;28;20932;-85
2023/10/20 09:59:27;;;;;;;0.30;0.30;;;7.70;99.90;;;;;;5052223;28;20440;-84
2023/10/20 10:01:54;;;;;;;0.30;0.30;;;7.70;99.90;;;;;;5069762;28;20476;-86
2023/10/20 10:04:28;;;;;;;0.30;0.30;;;7.70;99.90;;;;;;5071017;28;20993;-86
2023/10/20 10:06:55;;;;;;;0.30;0.30;;;7.80;99.90;;;;;;5056628;28;20960;-86
2023/10/20 10:09:22;;;;;;;0.30;0.30;;;7.70;99.90;;;;;;5062621;28;20943;-86
2023/10/20 10:11:48;;;;;;;0.30;0.30;;;7.80;99.90;;;;;;5070679;28;20436;-89
2023/10/20 10:14:22;;;;;;;0.20;0.20;;;7.70;99.90;;;;;;5070903;28;20476;-87
2023/10/20 10:16:55;;;;;;;0.20;0.20;;;7.80;99.90;;;;;;5072112;28;20428;-87
2023/10/20 10:19:27;;;;;;;0.30;0.30;;;7.80;99.90;;;;;;5069531;28;20707;-88
2023/10/20 10:21:57;;;;;;;0.30;0.30;;;7.80;99.90;;;;;;5069478;28;20428;-89
2023/10/20 10:24:24;;;;;;;0.27;0.27;;;7.90;99.90;;;;;;5064964;28;20505;-87
2023/10/20 10:27:02;;;;;;;0.30;0.30;;;7.90;99.90;;;;;;5067659;28;20436;-86
2023/10/20 10:29:53;;;;;;;0.30;0.30;;;7.90;99.90;;;;;;5070074;28;20439;-85
2023/10/20 10:32:21;;;;;;;0.30;0.30;;;7.90;99.90;;;;;;5070534;28;20429;-88
2023/10/20 10:34:48;;;;;;;0.30;0.30;;;7.80;99.90;;;;;;5071701;28;20495;-87
2023/10/20 10:37:34;;;;;;;0.30;0.30;;;7.80;99.90;;;;;;5069993;28;20434;-91
2023/10/20 10:40:18;;;;;;;0.30;0.30;;;7.70;99.90;;;;;;5070570;28;20582;-86
2023/10/20 10:42:45;;;;;;;0.20;0.20;;;7.80;99.90;;;;;;5070611;28;20533;-85
2023/10/20 10:45:30;;;;;;;0.27;0.27;;;7.80;99.90;;;;;;5066720;28;20919;-84
2023/10/20 10:48:05;;;;;;;0.30;0.30;;;7.80;99.90;;;;;;5064871;28;21025;-81
2023/10/20 10:50:32;;;;;;;0.20;0.20;;;7.80;99.90;;;;;;5059691;28;20433;-83
2023/10/20 10:52:59;;;;;;;0.30;0.30;;;7.80;99.90;;;;;;5053968;28;20423;-86
2023/10/20 10:55:24;;;;;;;0.30;0.30;;;7.80;99.90;;;;;;5067981;28;21104;-84
2023/10/20 10:57:51;;;;;;;0.30;0.30;;;7.70;99.90;;;;;;5055731;28;20528;-84
2023/10/20 11:00:17;;;;;;;0.30;0.30;;;7.70;99.90;;;;;;5079063;28;20182;-84
2023/10/20 11:02:44;;;;;;;0.27;0.27;;;7.80;99.90;;;;;;5033785;28;20437;-87
2023/10/20 11:05:10;;;;;;;0.30;0.30;;;7.70;99.90;;;;;;5046200;28;20424;-88
2023/10/20 11:07:36;;;;;;;0.20;0.20;;;7.70;99.90;;;;;;5067523;28;20490;-88
2023/10/20 11:10:03;;;;;;;0.27;0.27;;;7.70;99.90;;;;;;5069627;28;20795;-87
2023/10/20 11:12:30;;;;;;;0.20;0.20;;;7.70;99.90;;;;;;5050295;28;20189;-88
2023/10/20 11:15:03;;;;;;;0.30;0.30;;;7.70;99.90;;;;;;5068757;28;20484;-87
2023/10/20 11:17:30;;;;;;;0.20;0.20;;;7.60;99.90;;;;;;5050170;28;20928;-86
2023/10/20 11:19:56;;;;;;;0.20;0.20;;;7.60;99.90;;;;;;5063232;28;20486;-89
2023/10/20 11:22:22;;;;;;;0.20;0.20;;;7.50;99.90;;;;;;5040228;28;20448;-89
2023/10/20 11:24:55;;;;;;;0.20;0.20;;;7.50;99.90;;;;;;5060391;28;20562;-89
2023/10/20 11:27:20;;;;;;;0.30;0.30;;;7.40;99.90;;;;;;5058397;28;20655;-86
2023/10/20 11:29:49;;;;;;;0.30;0.30;;;7.40;99.90;;;;;;5062272;28;20468;-87
2023/10/20 11:32:14;;;;;;;0.20;0.20;;;7.30;99.90;;;;;;5066625;28;20248;-88
2023/10/20 11:34:40;;;;;;;0.30;0.30;;;7.40;99.90;;;;;;5068340;28;21006;-89
2023/10/20 11:37:06;;;;;;;0.30;0.30;;;7.30;99.90;;;;;;5069670;28;20265;-88
2023/10/20 11:39:36;;;;;;;0.30;0.30;;;7.40;99.90;;;;;;5050635;28;20197;-85
2023/10/20 11:42:02;;;;;;;0.30;0.30;;;7.30;99.90;;;;;;5051543;28;20448;-89
2023/10/20 11:44:28;;;;;;;0.30;0.30;;;7.30;99.90;;;;;;5070299;28;20425;-90
2023/10/20 11:46:54;;;;;;;0.23;0.23;;;7.30;99.90;;;;;;5076758;28;20439;-92
2023/10/20 11:49:20;;;;;;;0.30;0.30;;;7.30;99.90;;;;;;5068421;28;20182;-92
2023/10/20 11:51:47;;;;;;;0.30;0.30;;;7.30;99.90;;;;;;5071788;28;20544;-90
2023/10/20 11:54:13;;;;;;;0.30;0.30;;;7.30;99.90;;;;;;5056196;28;20507;-91
2023/10/20 11:56:40;;;;;;;0.30;0.30;;;7.30;99.90;;;;;;5071692;28;20487;-92
2023/10/20 11:59:06;;;;;;;0.30;0.30;;;7.30;99.90;;;;;;5057442;28;20212;-92
2023/10/20 12:01:32;;;;;;;0.30;0.30;;;7.30;99.90;;;;;;5041995;28;20572;-93
2023/10/20 12:03:59;;;;;;;0.30;0.30;;;7.30;99.90;;;;;;5035118;28;20529;-90
2023/10/20 12:06:25;;;;;;;0.30;0.30;;;7.30;99.90;;;;;;5034939;28;20202;-90
2023/10/20 12:08:53;;;;;;;0.30;0.30;;;7.40;99.90;;;;;;5024486;28;20462;-93
2023/10/20 12:11:19;;;;;;;0.30;0.30;;;7.30;99.90;;;;;;5037078;28;20249;-90
2023/10/20 12:13:48;;;;;;;0.30;0.30;;;7.30;99.90;;;;;;5038343;28;20458;-94
2023/10/20 12:16:19;;;;;;;0.30;0.30;;;7.20;99.90;;;;;;5037292;28;20193;-93
2023/10/20 12:18:46;;;;;;;0.30;0.30;;;7.20;99.90;;;;;;5046916;28;20430;-90
2023/10/20 12:21:12;;;;;;;0.30;0.30;;;7.30;99.90;;;;;;5020275;28;20439;-90
2023/10/20 12:23:38;;;;;;;0.30;0.30;;;7.30;99.90;;;;;;5040082;28;20442;-94
2023/10/20 12:26:04;;;;;;;0.30;0.30;;;7.30;99.90;;;;;;5037440;28;20434;-91
2023/10/20 12:28:31;;;;;;;0.30;0.30;;;7.20;99.90;;;;;;5028499;28;20442;-91
2023/10/20 12:30:57;;;;;;;0.30;0.30;;;7.30;99.90;;;;;;5033242;28;20184;-90
2023/10/20 12:33:24;;;;;;;0.30;0.30;;;7.30;99.90;;;;;;5044061;28;20477;-92
2023/10/20 12:35:53;;;;;;;0.30;0.30;;;7.30;99.90;;;;;;5038295;28;20443;-91
2023/10/20 12:38:18;;;;;;;0.30;0.30;;;7.30;99.90;;;;;;5038817;28;20435;-92
2023/10/20 12:40:44;;;;;;;0.30;0.30;;;7.30;99.90;;;;;;5024223;28;20514;-92
2023/10/20 12:43:09;;;;;;;0.30;0.30;;;7.30;99.90;;;;;;5028001;28;20190;-94
2023/10/20 12:45:38;;;;;;;0.30;0.30;;;7.30;99.90;;;;;;5038436;28;20203;-95
2023/10/20 12:48:05;;;;;;;0.30;0.30;;;7.20;99.90;;;;;;5022738;28;20212;-95
2023/10/20 12:50:32;;;;;;;0.30;0.30;;;7.20;99.90;;;;;;5018467;28;20442;-91
2023/10/20 12:53:01;;;;;;;0.20;0.20;;;7.20;99.90;;;;;;5034326;28;20446;-90
2023/10/20 12:55:27;;;;;;;0.30;0.30;;;7.20;99.90;;;;;;5030419;28;20478;-94
2023/10/20 12:57:53;;;;;;;0.30;0.30;;;7.20;99.90;;;;;;5018608;28;20959;-95
2023/10/20 13:00:20;;;;;;;0.30;0.30;;;7.20;99.90;;;;;;5031140;28;20194;-92
2023/10/20 13:02:49;;;;;;;0.30;0.30;;;7.30;99.90;;;;;;5065839;28;20558;-93
2023/10/20 13:05:16;;;;;;;0.30;0.30;;;7.20;99.90;;;;;;5073973;28;20427;-91
2023/10/20 13:07:43;;;;;;;0.30;0.30;;;7.30;99.90;;;;;;5045802;28;20548;-92
2023/10/20 13:10:09;;;;;;;0.30;0.30;;;7.30;99.90;;;;;;5067485;28;20523;-93
2023/10/20 13:12:36;;;;;;;0.20;0.20;;;7.30;99.90;;;;;;5073723;28;20181;-93
2023/10/20 13:15:05;;;;;;;0.23;0.23;;;7.30;99.90;;;;;;5079454;28;20540;-96
2023/10/20 13:17:34;;;;;;;0.30;0.30;;;7.30;99.90;;;;;;5074080;28;20404;-96
2023/10/20 13:20:00;;;;;;;0.20;0.20;;;7.30;99.90;;;;;;5065660;28;20429;-93
2023/10/20 13:22:26;;;;;;;0.30;0.30;;;7.30;99.90;;;;;;5054486;28;20466;-92
2023/10/20 13:24:52;;;;;;;0.30;0.30;;;7.30;99.90;;;;;;5071436;28;20182;-93